createdAt,value
2019-01-20T00:00:57.372Z,53.53
2019-01-20T00:03:27.024Z,36.73
2019-01-20T00:05:56.757Z,42.07
2019-01-20T00:08:26.405Z,43.50
2019-01-20T00:10:56.202Z,45.50
2019-01-20T00:13:25.865Z,47.00
2019-01-20T00:15:55.631Z,48.10
2019-01-20T00:18:25.239Z,39.70
2019-01-20T00:20:54.821Z,47.93
2019-01-20T00:23:24.516Z,39.40
2019-01-20T00:25:54.190Z,51.40
2019-01-20T00:28:23.968Z,43.43
2019-01-20T00:30:53.732Z,41.77
2019-01-20T00:33:23.430Z,43.53
2019-01-20T00:35:53.101Z,46.13
2019-01-20T00:38:22.801Z,49.70
2019-01-20T00:40:52.451Z,41.10
2019-01-20T00:43:22.145Z,45.23
2019-01-20T00:45:51.797Z,40.80
2019-01-20T00:48:21.478Z,46.13
2019-01-20T00:50:51.131Z,43.60
2019-01-20T00:53:20.866Z,45.87
2019-01-20T00:55:50.709Z,52.77
2019-01-20T00:58:20.427Z,46.73
2019-01-20T01:00:51.624Z,53.13
2019-01-20T01:03:21.357Z,56.70
2019-01-20T01:05:51.103Z,48.13
2019-01-20T01:08:20.783Z,48.87
2019-01-20T01:10:50.506Z,54.93
2019-01-20T01:13:20.606Z,48.67
2019-01-20T01:15:50.404Z,53.33
2019-01-20T01:18:20.107Z,52.27
2019-01-20T01:20:49.707Z,48.50
2019-01-20T01:23:19.419Z,47.43
2019-01-20T01:25:51.589Z,45.77
2019-01-20T01:28:21.542Z,41.57
2019-01-20T01:30:51.196Z,49.03
2019-01-20T01:33:20.751Z,57.43
2019-01-20T01:35:50.372Z,42.87
2019-01-20T01:38:19.987Z,47.80
2019-01-20T01:40:49.666Z,41.50
2019-01-20T01:43:19.309Z,42.80
2019-01-20T01:45:49.122Z,45.67
2019-01-20T01:48:18.735Z,46.87
2019-01-20T01:50:48.475Z,43.00
2019-01-20T01:53:18.197Z,49.50
2019-01-20T01:55:47.709Z,44.90
2019-01-20T01:58:17.377Z,43.57
2019-01-20T02:00:47.143Z,42.43
2019-01-20T02:03:16.786Z,48.07
2019-01-20T02:05:46.488Z,45.80
2019-01-20T02:08:16.058Z,41.37
2019-01-20T02:10:45.737Z,47.20
2019-01-20T02:13:15.440Z,47.80
2019-01-20T02:15:45.205Z,53.20
2019-01-20T02:18:14.878Z,48.50
2019-01-20T02:20:44.551Z,36.53
2019-01-20T02:23:14.235Z,45.50
2019-01-20T02:25:43.874Z,41.13
2019-01-20T02:28:13.555Z,49.07
2019-01-20T02:30:43.245Z,44.13
2019-01-20T02:33:12.932Z,48.07
2019-01-20T02:35:42.590Z,43.50
2019-01-20T02:38:12.260Z,38.97
2019-01-20T02:40:41.980Z,36.47
2019-01-20T02:43:11.680Z,47.87
2019-01-20T02:45:41.270Z,59.73
2019-01-20T02:48:10.939Z,48.73
2019-01-20T02:50:40.633Z,48.70
2019-01-20T02:53:10.290Z,43.67
2019-01-20T02:55:40.144Z,48.77
2019-01-20T02:58:09.764Z,44.37
2019-01-20T03:00:39.546Z,41.70
2019-01-20T03:03:09.260Z,45.27
2019-01-20T03:05:38.954Z,44.93
2019-01-20T03:08:08.693Z,43.67
2019-01-20T03:10:38.380Z,42.43
2019-01-20T03:13:08.015Z,49.80
2019-01-20T03:15:37.750Z,48.57
2019-01-20T03:18:07.507Z,48.20
2019-01-20T03:20:36.967Z,47.97
2019-01-20T03:23:06.728Z,53.67
2019-01-20T03:25:36.417Z,47.43
2019-01-20T03:28:06.114Z,43.57
2019-01-20T03:30:35.756Z,43.07
2019-01-20T03:33:05.477Z,40.13
2019-01-20T03:35:35.172Z,42.23
2019-01-20T03:38:04.850Z,53.83
2019-01-20T03:40:34.630Z,48.97
2019-01-20T03:43:04.310Z,50.70
2019-01-20T03:45:33.966Z,46.17
2019-01-20T03:48:03.710Z,54.03
2019-01-20T03:50:33.410Z,48.80
2019-01-20T03:53:03.063Z,44.83
2019-01-20T03:55:32.733Z,51.60
2019-01-20T03:58:02.586Z,43.07
2019-01-20T04:00:35.143Z,41.33
2019-01-20T04:03:04.987Z,38.80
2019-01-20T04:05:34.715Z,48.10
2019-01-20T04:08:04.362Z,43.97
2019-01-20T04:10:34.046Z,42.80
2019-01-20T04:13:03.834Z,45.87
2019-01-20T04:15:33.666Z,45.47
2019-01-20T04:20:32.607Z,48.53
2019-01-20T04:23:02.109Z,51.53
2019-01-20T04:25:31.890Z,50.33
2019-01-20T04:28:01.494Z,49.30
2019-01-20T04:30:31.150Z,47.57
2019-01-20T04:33:00.941Z,42.63
2019-01-20T04:35:30.610Z,41.30
2019-01-20T04:38:00.281Z,41.70
2019-01-20T04:40:29.986Z,43.80
2019-01-20T04:42:59.581Z,40.27
2019-01-20T04:45:29.294Z,40.87
2019-01-20T04:47:58.859Z,51.43
2019-01-20T04:50:28.502Z,50.90
2019-01-20T04:52:58.299Z,50.60
2019-01-20T04:55:27.965Z,53.03
2019-01-20T04:57:57.999Z,51.23
2019-01-20T05:00:28.056Z,54.87
2019-01-20T05:02:57.738Z,51.37
2019-01-20T05:05:27.387Z,52.07
2019-01-20T05:07:57.086Z,48.20
2019-01-20T05:10:26.795Z,51.57
2019-01-20T05:12:56.494Z,51.27
2019-01-20T05:15:26.169Z,57.90
2019-01-20T05:17:55.881Z,52.07
2019-01-20T05:20:25.547Z,49.17
2019-01-20T05:22:55.234Z,46.27
2019-01-20T05:25:24.892Z,50.20
2019-01-20T05:27:54.678Z,47.60
2019-01-20T05:30:25.063Z,50.03
2019-01-20T05:32:55.916Z,49.17
2019-01-20T05:35:27.093Z,52.57
2019-01-20T05:37:56.694Z,60.30
2019-01-20T05:40:26.429Z,47.87
2019-01-20T05:42:56.098Z,52.07
2019-01-20T05:45:25.747Z,55.33
2019-01-20T05:47:55.461Z,45.50
2019-01-20T05:50:25.116Z,45.47
2019-01-20T05:52:56.841Z,48.90
2019-01-20T05:55:28.635Z,54.03
2019-01-20T05:57:58.302Z,50.60
2019-01-20T06:00:30.242Z,53.20
2019-01-20T06:03:01.546Z,51.93
2019-01-20T06:05:32.367Z,56.80
2019-01-20T06:08:02.030Z,58.23
2019-01-20T06:10:31.737Z,57.13
2019-01-20T06:13:01.459Z,47.80
2019-01-20T06:15:31.156Z,52.23
2019-01-20T06:18:02.779Z,58.13
2019-01-20T06:20:35.597Z,54.00
2019-01-20T06:23:06.747Z,58.90
2019-01-20T06:25:36.548Z,48.53
2019-01-20T06:28:06.234Z,52.90
2019-01-20T06:30:37.450Z,55.33
2019-01-20T06:33:07.025Z,53.77
2019-01-20T06:35:36.825Z,56.77
2019-01-20T06:38:06.512Z,58.03
2019-01-20T06:40:36.222Z,52.70
2019-01-20T06:43:05.902Z,49.37
2019-01-20T06:45:35.615Z,53.13
2019-01-20T06:48:05.350Z,58.17
2019-01-20T06:50:35.167Z,59.30
2019-01-20T06:53:04.858Z,58.77
2019-01-20T06:55:34.515Z,59.20
2019-01-20T06:58:04.207Z,56.67
2019-01-20T07:00:33.910Z,60.30
2019-01-20T07:03:03.622Z,52.13
2019-01-20T07:05:33.294Z,53.13
2019-01-20T07:08:02.983Z,59.10
2019-01-20T07:10:32.666Z,54.63
2019-01-20T07:13:08.903Z,51.37
2019-01-20T07:15:33.682Z,66.87
2019-01-20T07:18:03.335Z,57.77
2019-01-20T07:20:33.026Z,66.10
2019-01-20T07:23:02.717Z,60.07
2019-01-20T07:25:32.422Z,55.57
2019-01-20T07:28:02.282Z,56.20
2019-01-20T07:30:31.906Z,55.67
2019-01-20T07:33:01.561Z,58.93
2019-01-20T07:35:31.307Z,51.67
2019-01-20T07:38:01.070Z,64.40
2019-01-20T07:40:30.769Z,60.57
2019-01-20T07:43:00.497Z,66.20
2019-01-20T07:45:30.220Z,59.13
2019-01-20T07:47:59.770Z,58.70
2019-01-20T07:50:29.610Z,58.37
2019-01-20T07:52:59.239Z,68.27
2019-01-20T07:55:28.930Z,64.23
2019-01-20T07:57:58.637Z,59.37
2019-01-20T08:00:28.311Z,54.40
2019-01-20T08:02:58.027Z,54.57
2019-01-20T08:05:27.683Z,56.87
2019-01-20T08:07:57.394Z,64.53
2019-01-20T08:10:27.961Z,54.03
2019-01-20T08:12:59.611Z,55.40
2019-01-20T08:15:29.385Z,58.30
2019-01-20T08:17:58.990Z,60.87
2019-01-20T08:20:28.686Z,55.07
2019-01-20T08:22:58.471Z,58.27
2019-01-20T08:25:28.134Z,56.30
2019-01-20T08:27:57.887Z,59.20
2019-01-20T08:30:27.554Z,65.10
2019-01-20T08:32:57.241Z,58.40
2019-01-20T08:35:26.943Z,56.87
2019-01-20T08:37:56.635Z,59.27
2019-01-20T08:40:28.500Z,57.90
2019-01-20T08:42:58.183Z,55.73
2019-01-20T08:45:42.722Z,51.70
2019-01-20T08:48:21.445Z,55.73
2019-01-20T08:50:51.192Z,76.63
2019-01-20T08:53:20.924Z,65.67
2019-01-20T08:55:50.590Z,62.80
2019-01-20T08:58:20.858Z,75.77
2019-01-20T09:00:50.552Z,63.13
2019-01-20T09:03:20.282Z,58.77
2019-01-20T09:05:50.147Z,69.70
2019-01-20T09:08:19.846Z,61.60
2019-01-20T09:10:49.559Z,62.33
2019-01-20T09:13:20.622Z,54.73
2019-01-20T09:15:50.603Z,57.90
2019-01-20T09:18:20.315Z,60.40
2019-01-20T09:20:50.059Z,56.80
2019-01-20T09:23:21.950Z,55.80
2019-01-20T09:25:51.637Z,59.17
2019-01-20T09:28:21.336Z,54.50
2019-01-20T09:30:51.131Z,52.93
2019-01-20T09:33:24.655Z,57.37
2019-01-20T09:35:53.310Z,55.43
2019-01-20T09:38:23.114Z,54.43
2019-01-20T09:40:52.751Z,54.50
2019-01-20T09:43:22.520Z,52.77
2019-01-20T09:45:53.194Z,54.13
2019-01-20T09:48:23.005Z,57.70
2019-01-20T09:50:52.787Z,50.30
2019-01-20T09:53:22.479Z,51.90
2019-01-20T09:55:52.180Z,45.67
2019-01-20T09:58:21.867Z,53.10
2019-01-20T10:00:51.641Z,44.07
2019-01-20T10:03:21.396Z,51.37
2019-01-20T10:05:58.185Z,50.33
2019-01-20T10:08:28.053Z,50.57
2019-01-20T10:10:57.731Z,53.60
2019-01-20T10:13:27.488Z,54.13
2019-01-20T10:15:57.396Z,53.80
2019-01-20T10:18:27.089Z,50.93
2019-01-20T10:20:56.863Z,54.97
2019-01-20T10:23:26.687Z,50.77
2019-01-20T10:25:56.435Z,48.80
2019-01-20T10:28:26.295Z,46.97
2019-01-20T10:30:56.136Z,52.20
2019-01-20T10:33:25.959Z,45.80
2019-01-20T10:35:57.264Z,51.13
2019-01-20T10:38:27.076Z,50.30
2019-01-20T10:40:56.952Z,48.70
2019-01-20T10:43:26.768Z,54.40
2019-01-20T10:45:56.894Z,56.37
2019-01-20T10:48:26.606Z,51.37
2019-01-20T10:50:56.564Z,51.97
2019-01-20T10:53:26.314Z,57.30
2019-01-20T10:55:56.308Z,57.07
2019-01-20T10:58:26.091Z,50.50
2019-01-20T11:00:55.871Z,52.03
2019-01-20T11:03:25.678Z,53.70
2019-01-20T11:05:55.511Z,56.40
2019-01-20T11:08:25.380Z,57.23
2019-01-20T11:10:55.191Z,62.43
2019-01-20T11:13:24.969Z,52.33
2019-01-20T11:15:54.744Z,55.53
2019-01-20T11:18:24.502Z,60.97
2019-01-20T11:20:54.421Z,52.03
2019-01-20T11:23:24.566Z,59.80
2019-01-20T11:25:54.318Z,61.57
2019-01-20T11:28:24.494Z,56.93
2019-01-20T11:30:54.290Z,55.00
2019-01-20T11:33:24.084Z,59.53
2019-01-20T11:35:53.861Z,62.47
2019-01-20T11:38:23.586Z,61.90
2019-01-20T11:40:53.400Z,62.13
2019-01-20T11:43:23.196Z,62.80
2019-01-20T11:45:52.907Z,66.43
2019-01-20T11:48:22.585Z,60.73
2019-01-20T11:50:52.384Z,61.33
2019-01-20T11:53:22.234Z,60.90
2019-01-20T11:55:53.420Z,55.83
2019-01-20T11:58:23.203Z,59.17
2019-01-20T12:00:53.580Z,56.67
2019-01-20T12:03:23.271Z,60.73
2019-01-20T12:05:53.023Z,61.10
2019-01-20T12:08:22.723Z,59.27
2019-01-20T12:10:52.444Z,56.77
2019-01-20T12:13:23.795Z,57.53
2019-01-20T12:15:53.443Z,58.23
2019-01-20T12:18:23.191Z,54.77
2019-01-20T12:20:52.885Z,61.73
2019-01-20T12:23:22.794Z,57.63
2019-01-20T12:25:52.446Z,57.47
2019-01-20T12:28:22.172Z,59.40
2019-01-20T12:30:51.951Z,66.40
2019-01-20T12:33:21.649Z,63.87
2019-01-20T12:35:51.510Z,65.37
2019-01-20T12:38:21.261Z,64.97
2019-01-20T12:40:51.003Z,59.77
2019-01-20T12:43:20.702Z,57.27
2019-01-20T12:45:50.396Z,56.47
2019-01-20T12:48:20.167Z,53.23
2019-01-20T12:50:49.863Z,49.10
2019-01-20T12:53:19.645Z,53.20
2019-01-20T12:55:50.331Z,57.37
2019-01-20T12:58:20.578Z,56.33
2019-01-20T13:00:50.411Z,52.10
2019-01-20T13:03:20.191Z,61.03
2019-01-20T13:05:49.946Z,55.60
2019-01-20T13:08:19.722Z,56.10
2019-01-20T13:10:49.473Z,53.50
2019-01-20T13:13:19.332Z,57.73
2019-01-20T13:15:49.025Z,56.27
2019-01-20T13:18:18.826Z,60.93
2019-01-20T13:20:48.560Z,53.40
2019-01-20T13:23:18.292Z,56.47
2019-01-20T13:25:47.991Z,57.40
2019-01-20T13:28:17.744Z,53.53
2019-01-20T13:30:47.540Z,59.53
2019-01-20T13:33:17.309Z,55.47
2019-01-20T13:35:47.095Z,56.57
2019-01-20T13:38:17.086Z,56.07
2019-01-20T13:40:52.403Z,53.77
2019-01-20T13:43:22.177Z,59.23
2019-01-20T13:45:51.906Z,62.47
2019-01-20T13:48:21.784Z,61.77
2019-01-20T13:50:51.550Z,61.97
2019-01-20T13:53:21.251Z,67.87
2019-01-20T13:55:51.083Z,67.03
2019-01-20T13:58:20.773Z,73.17
2019-01-20T14:00:50.427Z,72.17
2019-01-20T14:03:20.237Z,69.40
2019-01-20T14:05:49.997Z,73.60
2019-01-20T14:08:19.706Z,73.07
2019-01-20T14:10:49.539Z,78.33
2019-01-20T14:13:19.312Z,80.10
2019-01-20T14:15:49.068Z,78.93
2019-01-20T14:18:18.763Z,78.13
2019-01-20T14:20:48.467Z,81.10
2019-01-20T14:23:18.278Z,86.57
2019-01-20T14:25:48.038Z,83.40
2019-01-20T14:28:17.818Z,85.97
2019-01-20T14:30:47.571Z,81.10
2019-01-20T14:33:17.292Z,73.73
2019-01-20T14:35:47.053Z,74.70
2019-01-20T14:38:16.837Z,71.40
2019-01-20T14:40:46.520Z,79.73
2019-01-20T14:43:16.230Z,67.23
2019-01-20T14:45:45.986Z,74.53
2019-01-20T14:48:15.750Z,74.33
2019-01-20T14:50:45.516Z,71.03
2019-01-20T14:53:15.260Z,77.33
2019-01-20T14:55:45.161Z,73.97
2019-01-20T14:58:14.826Z,74.53
2019-01-20T15:00:44.590Z,77.37
2019-01-20T15:03:14.371Z,83.13
2019-01-20T15:05:44.252Z,84.03
2019-01-20T15:08:14.006Z,78.33
2019-01-20T15:10:43.758Z,82.67
2019-01-20T15:13:13.528Z,82.83
2019-01-20T15:15:43.501Z,90.03
2019-01-20T15:18:13.238Z,90.53
2019-01-20T15:20:43.065Z,80.83
2019-01-20T15:23:12.808Z,76.73
2019-01-20T15:25:42.646Z,82.23
2019-01-20T15:28:12.455Z,84.13
2019-01-20T15:30:42.257Z,76.13
2019-01-20T15:33:12.031Z,83.73
2019-01-20T15:35:41.894Z,85.60
2019-01-20T15:38:11.661Z,84.33
2019-01-20T15:40:41.465Z,88.30
2019-01-20T15:43:11.191Z,78.37
2019-01-20T15:45:40.889Z,83.53
2019-01-20T15:48:10.744Z,80.83
2019-01-20T15:50:40.634Z,88.13
2019-01-20T15:53:10.436Z,86.17
2019-01-20T15:55:40.276Z,85.27
2019-01-20T15:58:10.044Z,91.60
2019-01-20T16:00:39.825Z,88.50
2019-01-20T16:03:09.639Z,88.77
2019-01-20T16:05:39.526Z,83.53
2019-01-20T16:08:09.386Z,91.73
2019-01-20T16:10:39.226Z,92.20
2019-01-20T16:13:08.961Z,95.80
2019-01-20T16:15:38.786Z,85.33
2019-01-20T16:18:08.575Z,90.47
2019-01-20T16:20:38.566Z,91.40
2019-01-20T16:23:08.404Z,89.97
2019-01-20T16:25:38.301Z,90.73
2019-01-20T16:28:08.262Z,105.30
2019-01-20T16:30:38.387Z,98.63
2019-01-20T16:33:10.173Z,99.63
2019-01-20T16:35:39.942Z,95.80
2019-01-20T16:38:09.759Z,107.70
2019-01-20T16:40:39.607Z,107.70
2019-01-20T16:43:09.577Z,109.73
2019-01-20T16:45:42.456Z,106.07
2019-01-20T16:48:12.612Z,100.70
2019-01-20T16:50:42.431Z,113.37
2019-01-20T16:53:12.360Z,102.83
2019-01-20T16:55:42.238Z,106.30
2019-01-20T16:58:12.035Z,114.73
2019-01-20T17:00:42.333Z,109.90
2019-01-20T17:03:12.301Z,110.50
2019-01-20T17:05:42.045Z,113.93
2019-01-20T17:08:11.914Z,107.30
2019-01-20T17:10:41.912Z,106.63
2019-01-20T17:13:11.690Z,108.97
2019-01-20T17:15:42.175Z,103.53
2019-01-20T17:18:12.893Z,121.57
2019-01-20T17:20:42.717Z,120.67
2019-01-20T17:23:12.547Z,112.90
2019-01-20T17:25:42.477Z,110.50
2019-01-20T17:28:14.414Z,110.97
2019-01-20T17:30:49.529Z,108.17
2019-01-20T17:33:22.570Z,118.80
2019-01-20T17:35:54.369Z,115.43
2019-01-20T17:38:26.619Z,114.50
2019-01-20T17:40:58.051Z,114.87
2019-01-20T17:43:30.413Z,115.53
2019-01-20T17:46:03.728Z,116.03
2019-01-20T17:48:35.713Z,107.07
2019-01-20T17:51:08.303Z,115.60
2019-01-20T17:53:40.550Z,104.37
2019-01-20T17:56:12.523Z,105.23
2019-01-20T17:58:44.543Z,105.20
2019-01-20T18:01:16.407Z,120.90
2019-01-20T18:03:47.356Z,112.23
2019-01-20T18:06:19.092Z,103.47
2019-01-20T18:08:51.033Z,106.00
2019-01-20T18:11:23.095Z,110.70
2019-01-20T18:13:55.704Z,106.77
2019-01-20T18:16:27.860Z,110.70
2019-01-20T18:19:00.449Z,110.43
2019-01-20T18:21:57.537Z,115.43
2019-01-20T18:24:28.170Z,124.30
2019-01-20T18:26:58.259Z,123.83
2019-01-20T18:29:28.199Z,124.67
2019-01-20T18:31:58.049Z,120.13
2019-01-20T18:34:27.839Z,108.07
2019-01-20T18:36:57.622Z,112.27
2019-01-20T18:39:27.444Z,106.93
2019-01-20T18:41:57.322Z,97.27
2019-01-20T18:44:27.100Z,97.03
2019-01-20T18:46:57.054Z,97.37
2019-01-20T18:49:26.876Z,99.07
2019-01-20T18:51:56.755Z,99.67
2019-01-20T18:54:26.676Z,96.70
2019-01-20T18:56:56.464Z,109.47
2019-01-20T18:59:26.289Z,105.63
2019-01-20T19:01:56.076Z,111.20
2019-01-20T19:04:26.024Z,107.30
2019-01-20T19:06:55.755Z,100.30
2019-01-20T19:09:25.535Z,109.57
2019-01-20T19:11:55.275Z,114.20
2019-01-20T19:14:25.103Z,103.50
2019-01-20T19:16:54.915Z,109.87
2019-01-20T19:19:24.601Z,113.97
2019-01-20T19:21:54.343Z,117.00
2019-01-20T19:24:24.175Z,114.10
2019-01-20T19:26:53.958Z,102.97
2019-01-20T19:29:23.774Z,111.43
2019-01-20T19:31:53.562Z,116.37
2019-01-20T19:34:23.330Z,109.30
2019-01-20T19:36:53.247Z,122.73
2019-01-20T19:39:23.053Z,108.47
2019-01-20T19:41:52.851Z,113.83
2019-01-20T19:44:22.564Z,105.33
2019-01-20T19:46:52.702Z,119.53
2019-01-20T19:49:22.563Z,121.10
2019-01-20T19:51:52.303Z,112.63
2019-01-20T19:54:22.002Z,104.97
2019-01-20T19:56:51.725Z,112.43
2019-01-20T19:59:21.594Z,112.07
2019-01-20T20:01:51.327Z,106.43
2019-01-20T20:04:21.116Z,116.80
2019-01-20T20:06:50.831Z,121.50
2019-01-20T20:09:20.541Z,111.63
2019-01-20T20:11:50.221Z,108.13
2019-01-20T20:14:20.013Z,111.80
2019-01-20T20:16:49.722Z,105.77
2019-01-20T20:19:19.523Z,100.73
2019-01-20T20:21:49.206Z,105.80
2019-01-20T20:24:25.084Z,107.03
2019-01-20T20:26:50.390Z,114.33
2019-01-20T20:29:20.153Z,102.07
2019-01-20T20:31:49.932Z,115.43
2019-01-20T20:34:19.731Z,112.27
2019-01-20T20:36:49.551Z,105.83
2019-01-20T20:39:19.375Z,109.23
2019-01-20T20:41:49.220Z,107.10
2019-01-20T20:44:18.887Z,107.23
2019-01-20T20:46:48.658Z,103.80
2019-01-20T20:49:18.457Z,103.87
2019-01-20T20:51:48.191Z,95.30
2019-01-20T20:54:17.926Z,103.00
2019-01-20T20:56:47.593Z,98.00
2019-01-20T20:59:17.385Z,110.00
2019-01-20T21:01:47.067Z,100.80
2019-01-20T21:04:16.876Z,105.23
2019-01-20T21:06:46.635Z,111.33
2019-01-20T21:09:16.272Z,115.20
2019-01-20T21:11:46.027Z,119.87
2019-01-20T21:14:15.855Z,115.37
2019-01-20T21:16:45.606Z,106.43
2019-01-20T21:19:15.367Z,114.07
2019-01-20T21:21:45.192Z,111.30
2019-01-20T21:24:14.931Z,94.30
2019-01-20T21:26:44.736Z,104.07
2019-01-20T21:29:14.508Z,105.07
2019-01-20T21:31:44.228Z,92.83
2019-01-20T21:34:14.090Z,97.07
2019-01-20T21:36:43.819Z,105.57
2019-01-20T21:39:13.529Z,108.23
2019-01-20T21:41:43.226Z,99.60
2019-01-20T21:44:13.067Z,114.43
2019-01-20T21:46:45.410Z,107.00
2019-01-20T21:49:14.164Z,111.93
2019-01-20T21:51:43.897Z,100.77
2019-01-20T21:54:13.600Z,114.30
2019-01-20T21:56:43.302Z,102.00
2019-01-20T21:59:13.086Z,99.87
2019-01-20T22:01:42.854Z,99.07
2019-01-20T22:04:12.579Z,112.37
2019-01-20T22:06:42.277Z,112.33
2019-01-20T22:09:12.080Z,120.97
2019-01-20T22:11:41.854Z,112.80
2019-01-20T22:14:11.467Z,104.27
2019-01-20T22:16:41.171Z,103.87
2019-01-20T22:19:10.952Z,104.40
2019-01-20T22:21:40.664Z,103.23
2019-01-20T22:24:10.449Z,98.30
2019-01-20T22:26:40.145Z,95.47
2019-01-20T22:29:09.949Z,93.03
2019-01-20T22:31:39.657Z,93.80
2019-01-20T22:34:09.409Z,95.37
2019-01-20T22:36:39.218Z,90.17
2019-01-20T22:39:09.078Z,98.97
2019-01-20T22:41:38.841Z,97.80
2019-01-20T22:44:08.628Z,93.23
2019-01-20T22:46:38.402Z,94.57
2019-01-20T22:49:08.184Z,96.70
2019-01-20T22:51:37.883Z,103.10
2019-01-20T22:54:07.667Z,105.67
2019-01-20T22:56:37.437Z,103.13
2019-01-20T22:59:07.152Z,96.20
2019-01-20T23:01:36.943Z,99.90
2019-01-20T23:04:06.694Z,98.83
2019-01-20T23:06:36.515Z,120.20
2019-01-20T23:09:08.027Z,121.53
2019-01-20T23:11:37.825Z,132.90
2019-01-20T23:14:07.562Z,127.33
2019-01-20T23:16:37.278Z,109.10
2019-01-20T23:19:06.952Z,108.97
2019-01-20T23:21:36.669Z,99.57
2019-01-20T23:24:06.437Z,108.23
2019-01-20T23:26:36.240Z,98.17
2019-01-20T23:29:06.085Z,119.77
2019-01-20T23:31:35.822Z,107.70
2019-01-20T23:34:05.536Z,101.50
2019-01-20T23:36:35.271Z,112.83
2019-01-20T23:39:07.110Z,101.00
2019-01-20T23:41:36.899Z,111.50
2019-01-20T23:44:06.642Z,123.47
2019-01-20T23:46:36.334Z,116.63
2019-01-20T23:49:06.118Z,121.20
2019-01-20T23:51:35.901Z,110.10
2019-01-20T23:54:05.685Z,113.03
2019-01-20T23:56:35.479Z,119.13
2019-01-20T23:59:05.214Z,112.77
